createdAt,value
2023-05-15T00:02:02.552Z,11.20
2023-05-15T00:04:29.711Z,11.57
2023-05-15T00:06:56.910Z,12.10
2023-05-15T00:09:24.147Z,12.07
2023-05-15T00:11:51.307Z,11.20
2023-05-15T00:14:18.438Z,12.33
2023-05-15T00:16:45.649Z,11.90
2023-05-15T00:19:12.822Z,11.70
2023-05-15T00:21:40.041Z,13.60
2023-05-15T00:24:07.278Z,12.17
2023-05-15T00:26:34.726Z,16.50
2023-05-15T00:29:01.858Z,11.70
2023-05-15T00:31:29.025Z,15.93
2023-05-15T00:33:56.137Z,11.17
2023-05-15T00:36:25.538Z,11.27
2023-05-15T00:38:53.878Z,11.90
2023-05-15T00:41:22.448Z,12.77
2023-05-15T00:43:52.138Z,12.90
2023-05-15T00:46:20.531Z,14.40
2023-05-15T00:48:48.274Z,13.03
2023-05-15T00:51:15.432Z,12.07
2023-05-15T00:53:43.439Z,15.00
2023-05-15T00:56:11.655Z,17.27
2023-05-15T00:58:39.179Z,14.43
2023-05-15T01:01:08.492Z,13.47
2023-05-15T01:03:36.722Z,13.53
2023-05-15T01:06:04.042Z,15.00
2023-05-15T01:08:44.209Z,15.63
2023-05-15T01:11:12.493Z,14.77
2023-05-15T01:13:39.726Z,13.77
2023-05-15T01:16:07.608Z,15.63
2023-05-15T01:18:34.835Z,15.03
2023-05-15T01:21:05.050Z,16.30
2023-05-15T01:23:38.331Z,15.23
2023-05-15T01:26:11.367Z,14.13
2023-05-15T01:28:46.730Z,13.80
2023-05-15T01:31:19.696Z,13.63
2023-05-15T01:33:47.880Z,20.10
2023-05-15T01:36:33.358Z,15.13
2023-05-15T01:39:02.853Z,15.83
2023-05-15T01:41:32.638Z,17.23
2023-05-15T01:44:08.089Z,15.20
2023-05-15T01:46:44.096Z,14.67
2023-05-15T01:49:13.866Z,15.37
2023-05-15T01:51:43.138Z,17.17
2023-05-15T01:54:11.414Z,16.27
2023-05-15T01:56:38.710Z,15.33
2023-05-15T01:59:06.286Z,14.80
2023-05-15T02:01:34.306Z,18.70
2023-05-15T02:04:02.766Z,16.73
2023-05-15T02:06:30.631Z,15.93
2023-05-15T02:08:58.833Z,14.53
2023-05-15T02:11:25.991Z,14.80
2023-05-15T02:13:53.755Z,15.47
2023-05-15T02:16:21.104Z,14.00
2023-05-15T02:18:48.327Z,15.93
2023-05-15T02:21:15.792Z,14.17
2023-05-15T02:23:42.954Z,15.37
2023-05-15T02:26:21.520Z,14.37
2023-05-15T02:28:53.800Z,16.17
2023-05-15T02:31:43.860Z,14.17
2023-05-15T02:34:18.980Z,16.63
2023-05-15T02:36:48.808Z,14.57
2023-05-15T02:39:16.935Z,16.57
2023-05-15T02:41:44.731Z,18.30
2023-05-15T02:44:12.781Z,17.60
2023-05-15T02:46:40.311Z,16.87
2023-05-15T02:49:07.921Z,17.10
2023-05-15T02:51:35.379Z,19.13
2023-05-15T02:54:02.941Z,20.20
2023-05-15T02:56:30.056Z,18.23
2023-05-15T02:58:57.250Z,16.80
2023-05-15T03:01:24.520Z,19.23
2023-05-15T03:03:51.687Z,16.00
2023-05-15T03:06:18.887Z,20.93
2023-05-15T03:08:46.019Z,16.17
2023-05-15T03:11:14.231Z,16.27
2023-05-15T03:13:41.454Z,18.20
2023-05-15T03:16:08.630Z,16.27
2023-05-15T03:18:35.776Z,18.67
2023-05-15T03:21:02.916Z,16.03
2023-05-15T03:23:31.493Z,14.83
2023-05-15T03:25:58.909Z,17.17
2023-05-15T03:28:26.265Z,15.90
2023-05-15T03:30:53.444Z,14.70
2023-05-15T03:33:20.587Z,15.70
2023-05-15T03:35:47.768Z,13.17
2023-05-15T03:38:14.910Z,12.93
2023-05-15T03:40:42.068Z,15.23
2023-05-15T03:43:09.181Z,16.47
2023-05-15T03:45:36.976Z,13.30
2023-05-15T03:48:04.201Z,14.17
2023-05-15T03:50:31.424Z,12.67
2023-05-15T03:52:58.592Z,13.43
2023-05-15T03:55:26.036Z,13.67
2023-05-15T03:57:53.373Z,13.97
2023-05-15T04:00:20.598Z,13.40
2023-05-15T04:02:47.773Z,12.53
2023-05-15T04:05:15.032Z,12.63
2023-05-15T04:07:42.207Z,11.17
2023-05-15T04:10:09.429Z,12.10
2023-05-15T04:12:36.614Z,11.13
2023-05-15T04:15:16.021Z,11.03
2023-05-15T04:17:43.910Z,9.57
2023-05-15T04:20:11.446Z,8.10
2023-05-15T04:22:38.608Z,7.33
2023-05-15T04:25:05.881Z,7.80
2023-05-15T04:27:32.988Z,7.63
2023-05-15T04:30:01.778Z,6.20
2023-05-15T04:32:28.957Z,7.00
2023-05-15T04:34:56.215Z,6.30
2023-05-15T04:37:23.417Z,7.07
2023-05-15T04:39:50.588Z,7.13
2023-05-15T04:42:17.715Z,6.70
2023-05-15T04:44:44.867Z,5.57
2023-05-15T04:47:12.092Z,6.90
2023-05-15T04:49:39.603Z,6.70
2023-05-15T04:52:06.715Z,4.67
2023-05-15T04:54:33.887Z,5.23
2023-05-15T04:57:01.388Z,4.97
2023-05-15T04:59:28.796Z,4.68
2023-05-15T05:01:56.069Z,5.68
2023-05-15T05:04:23.338Z,4.57
2023-05-15T05:06:50.716Z,4.32
2023-05-15T05:09:19.380Z,5.78
2023-05-15T05:11:46.728Z,5.95
2023-05-15T05:14:14.765Z,4.50
2023-05-15T05:16:42.132Z,4.95
2023-05-15T05:19:09.525Z,4.43
2023-05-15T05:21:36.763Z,4.80
2023-05-15T05:24:03.984Z,4.50
2023-05-15T05:26:31.185Z,4.65
2023-05-15T05:28:58.332Z,4.95
2023-05-15T05:31:25.507Z,4.70
2023-05-15T05:33:52.855Z,6.00
2023-05-15T05:36:20.031Z,5.68
2023-05-15T05:38:47.196Z,4.53
2023-05-15T05:41:14.405Z,4.80
2023-05-15T05:43:41.579Z,5.15
2023-05-15T05:46:08.788Z,5.40
2023-05-15T05:48:36.519Z,4.80
2023-05-15T05:51:03.684Z,7.50
2023-05-15T05:53:30.826Z,7.60
2023-05-15T05:55:57.962Z,6.93
2023-05-15T05:58:26.288Z,4.80
2023-05-15T06:00:54.108Z,5.10
2023-05-15T06:03:21.557Z,8.55
2023-05-15T06:05:48.804Z,5.78
2023-05-15T06:08:15.979Z,6.82
2023-05-15T06:10:43.075Z,6.68
2023-05-15T06:13:10.169Z,5.43
2023-05-15T06:15:37.598Z,5.88
2023-05-15T06:18:04.866Z,5.55
2023-05-15T06:20:32.099Z,6.78
2023-05-15T06:22:59.200Z,4.70
2023-05-15T06:25:26.309Z,5.85
2023-05-15T06:27:53.430Z,6.03
2023-05-15T06:30:20.512Z,7.13
2023-05-15T06:32:47.670Z,7.20
2023-05-15T06:35:14.769Z,5.88
2023-05-15T06:37:41.910Z,6.63
2023-05-15T06:40:09.315Z,5.45
2023-05-15T06:42:36.436Z,5.85
2023-05-15T06:45:03.608Z,7.13
2023-05-15T06:47:30.716Z,7.53
2023-05-15T06:49:57.798Z,7.38
2023-05-15T06:52:24.896Z,8.77
2023-05-15T06:54:52.198Z,7.60
2023-05-15T06:57:19.849Z,9.05
2023-05-15T06:59:47.059Z,9.45
2023-05-15T07:02:14.333Z,7.80
2023-05-15T07:04:41.517Z,10.60
2023-05-15T07:07:08.658Z,8.85
2023-05-15T07:09:35.844Z,9.13
2023-05-15T07:12:03.789Z,10.73
2023-05-15T07:14:30.897Z,9.38
2023-05-15T07:16:58.011Z,12.40
2023-05-15T07:19:25.129Z,10.32
2023-05-15T07:21:52.319Z,8.65
2023-05-15T07:24:19.447Z,10.07
2023-05-15T07:26:57.585Z,8.80
2023-05-15T07:29:26.242Z,9.05
2023-05-15T07:31:53.746Z,10.43
2023-05-15T07:34:21.072Z,9.60
2023-05-15T07:36:48.148Z,10.02
2023-05-15T07:39:15.983Z,7.35
2023-05-15T07:41:43.140Z,13.27
2023-05-15T07:44:10.284Z,8.85
2023-05-15T07:46:38.897Z,8.80
2023-05-15T07:49:06.208Z,7.47
2023-05-15T07:51:33.325Z,8.15
2023-05-15T07:54:00.798Z,8.13
2023-05-15T07:56:28.221Z,8.65
2023-05-15T07:58:55.417Z,9.18
2023-05-15T08:01:22.560Z,7.38
2023-05-15T08:03:49.780Z,7.28
2023-05-15T08:06:16.975Z,7.18
2023-05-15T08:08:44.148Z,6.75
2023-05-15T08:11:11.248Z,6.10
2023-05-15T08:13:38.347Z,6.45
2023-05-15T08:16:06.105Z,8.90
2023-05-15T08:18:33.387Z,6.25
2023-05-15T08:21:01.582Z,6.20
2023-05-15T08:23:29.532Z,6.40
2023-05-15T08:25:56.616Z,6.75
2023-05-15T08:28:23.752Z,7.07
2023-05-15T08:30:50.870Z,9.05
2023-05-15T08:33:18.071Z,8.40
2023-05-15T08:35:45.278Z,7.55
2023-05-15T08:38:12.426Z,7.22
2023-05-15T08:40:41.276Z,7.22
2023-05-15T08:43:15.142Z,6.25
2023-05-15T08:45:42.498Z,8.13
2023-05-15T08:48:11.942Z,6.95
2023-05-15T08:50:40.208Z,8.40
2023-05-15T08:53:07.473Z,6.60
2023-05-15T08:55:34.663Z,8.57
2023-05-15T08:58:02.228Z,6.43
2023-05-15T09:00:29.631Z,7.07
2023-05-15T09:02:59.220Z,7.93
2023-05-15T09:05:26.902Z,6.95
2023-05-15T09:07:55.508Z,8.40
2023-05-15T09:10:23.076Z,7.13
2023-05-15T09:12:51.559Z,5.80
2023-05-15T09:15:22.463Z,6.60
2023-05-15T09:17:50.154Z,7.55
2023-05-15T09:20:32.580Z,9.75
2023-05-15T09:23:00.722Z,6.57
2023-05-15T09:25:41.668Z,8.52
2023-05-15T09:28:12.542Z,7.25
2023-05-15T09:30:39.930Z,6.60
2023-05-15T09:33:07.420Z,8.80
2023-05-15T09:35:35.672Z,5.28
2023-05-15T09:38:04.064Z,7.28
2023-05-15T09:40:34.217Z,7.88
2023-05-15T09:43:01.399Z,10.35
2023-05-15T09:45:30.258Z,9.65
2023-05-15T09:48:00.693Z,7.00
2023-05-15T09:50:34.302Z,8.93
2023-05-15T09:53:01.500Z,7.60
2023-05-15T09:55:29.184Z,7.32
2023-05-15T09:58:06.471Z,8.60
2023-05-15T10:00:34.249Z,7.32
2023-05-15T10:03:05.278Z,10.05
2023-05-15T10:05:43.093Z,11.18
2023-05-15T10:08:11.666Z,8.77
2023-05-15T10:10:39.082Z,9.98
2023-05-15T10:13:07.922Z,13.32
2023-05-15T10:15:35.305Z,10.25
2023-05-15T10:18:04.989Z,9.30
2023-05-15T10:20:35.687Z,11.40
2023-05-15T10:23:04.639Z,9.65
2023-05-15T10:25:51.247Z,9.68
2023-05-15T10:28:19.777Z,8.15
2023-05-15T10:30:46.997Z,10.00
2023-05-15T10:33:14.297Z,7.53
2023-05-15T10:35:41.831Z,10.55
2023-05-15T10:38:09.337Z,7.07
2023-05-15T10:40:37.927Z,10.35
2023-05-15T10:43:06.252Z,7.85
2023-05-15T10:45:34.073Z,7.32
2023-05-15T10:48:02.709Z,10.90
2023-05-15T10:50:29.932Z,6.63
2023-05-15T10:52:57.157Z,9.45
2023-05-15T10:55:24.504Z,7.65
2023-05-15T10:57:51.794Z,9.13
2023-05-15T11:00:31.206Z,11.27
2023-05-15T11:02:59.239Z,9.40
2023-05-15T11:05:27.022Z,8.23
2023-05-15T11:08:12.677Z,7.72
2023-05-15T11:10:40.061Z,8.80
2023-05-15T11:13:07.221Z,9.45
2023-05-15T11:15:44.453Z,9.43
2023-05-15T11:18:12.181Z,8.55
2023-05-15T11:20:54.129Z,6.72
2023-05-15T11:23:25.894Z,10.68
2023-05-15T11:25:58.976Z,9.05
2023-05-15T11:28:30.048Z,7.57
2023-05-15T11:31:07.148Z,7.38
2023-05-15T11:33:34.412Z,7.82
2023-05-15T11:36:01.634Z,9.00
2023-05-15T11:38:28.738Z,8.55
2023-05-15T11:40:56.694Z,8.73
2023-05-15T11:43:27.353Z,8.13
2023-05-15T11:45:58.627Z,9.18
2023-05-15T11:48:26.590Z,9.25
2023-05-15T11:50:53.994Z,8.20
2023-05-15T11:53:23.955Z,8.82
2023-05-15T11:55:52.818Z,6.85
2023-05-15T11:58:21.146Z,9.98
2023-05-15T12:00:49.100Z,8.90
2023-05-15T12:03:16.337Z,6.28
2023-05-15T12:05:56.999Z,7.10
2023-05-15T12:08:25.950Z,6.47
2023-05-15T12:10:53.106Z,9.05
2023-05-15T12:13:20.409Z,8.40
2023-05-15T12:15:47.906Z,8.82
2023-05-15T12:18:14.985Z,9.07
2023-05-15T12:20:46.852Z,7.53
2023-05-15T12:23:17.730Z,5.80
2023-05-15T12:25:47.140Z,8.45
2023-05-15T12:28:14.668Z,8.07
2023-05-15T12:30:42.686Z,8.15
2023-05-15T12:33:10.500Z,9.80
2023-05-15T12:35:42.117Z,7.47
2023-05-15T12:38:09.655Z,7.95
2023-05-15T12:40:37.428Z,7.40
2023-05-15T12:43:08.129Z,8.60
2023-05-15T12:45:37.371Z,9.20
2023-05-15T12:48:04.859Z,8.90
2023-05-15T12:50:35.940Z,10.15
2023-05-15T12:53:04.107Z,8.55
2023-05-15T12:55:32.501Z,8.68
2023-05-15T12:58:07.060Z,9.05
2023-05-15T13:00:34.876Z,8.25
2023-05-15T13:03:02.497Z,10.20
2023-05-15T13:05:32.096Z,9.45
2023-05-15T13:08:00.640Z,6.38
2023-05-15T13:10:28.039Z,7.03
2023-05-15T13:12:56.740Z,8.60
2023-05-15T13:15:29.848Z,10.07
2023-05-15T13:18:00.949Z,7.78
2023-05-15T13:20:29.354Z,8.13
2023-05-15T13:22:56.484Z,10.18
2023-05-15T13:25:23.566Z,6.80
2023-05-15T13:27:51.138Z,8.27
2023-05-15T13:30:19.076Z,9.48
2023-05-15T13:32:46.341Z,9.63
2023-05-15T13:35:13.730Z,10.20
2023-05-15T13:37:40.872Z,10.98
2023-05-15T13:40:12.369Z,7.93
2023-05-15T13:42:40.659Z,7.75
2023-05-15T13:45:12.333Z,10.18
2023-05-15T13:47:39.901Z,8.02
2023-05-15T13:50:07.883Z,7.10
2023-05-15T13:52:35.188Z,9.02
2023-05-15T13:55:02.422Z,9.13
2023-05-15T13:57:29.584Z,8.98
2023-05-15T13:59:56.686Z,10.15
2023-05-15T14:02:26.476Z,8.60
2023-05-15T14:04:53.995Z,9.98
2023-05-15T14:07:24.283Z,8.10
2023-05-15T14:09:51.676Z,10.85
2023-05-15T14:12:18.948Z,6.97
2023-05-15T14:14:47.077Z,10.43
2023-05-15T14:17:15.023Z,9.05
2023-05-15T14:19:42.274Z,8.85
2023-05-15T14:22:09.502Z,9.45
2023-05-15T14:24:36.633Z,7.25
2023-05-15T14:27:03.780Z,7.93
2023-05-15T14:29:31.044Z,8.70
2023-05-15T14:31:58.284Z,10.23
2023-05-15T14:34:25.524Z,8.55
2023-05-15T14:36:52.693Z,8.57
2023-05-15T14:39:19.821Z,10.32
2023-05-15T14:41:47.133Z,9.27
2023-05-15T14:44:14.271Z,7.72
2023-05-15T14:46:43.047Z,7.90
2023-05-15T14:49:10.433Z,10.07
2023-05-15T14:51:37.623Z,6.10
2023-05-15T14:54:05.139Z,8.13
2023-05-15T14:56:32.541Z,6.72
2023-05-15T14:58:59.657Z,7.85
2023-05-15T15:01:26.945Z,7.30
2023-05-15T15:03:54.269Z,7.68
2023-05-15T15:06:21.446Z,6.00
2023-05-15T15:08:48.782Z,8.05
2023-05-15T15:11:16.063Z,5.57
2023-05-15T15:13:43.141Z,6.70
2023-05-15T15:16:10.288Z,6.05
2023-05-15T15:18:37.531Z,9.45
2023-05-15T15:21:04.985Z,7.65
2023-05-15T15:23:32.118Z,9.35
2023-05-15T15:25:59.277Z,6.68
2023-05-15T15:28:26.506Z,5.63
2023-05-15T15:30:54.009Z,10.32
2023-05-15T15:33:21.117Z,6.65
2023-05-15T15:35:48.267Z,8.02
2023-05-15T15:38:15.437Z,10.15
2023-05-15T15:40:42.556Z,7.28
2023-05-15T15:43:09.665Z,5.75
2023-05-15T15:45:36.802Z,7.43
2023-05-15T15:48:04.027Z,10.85
2023-05-15T15:50:31.210Z,5.75
2023-05-15T15:52:58.422Z,6.80
2023-05-15T15:55:25.852Z,7.32
2023-05-15T15:57:52.973Z,9.32
2023-05-15T16:00:20.222Z,6.22
2023-05-15T16:02:47.461Z,8.00
2023-05-15T16:05:14.869Z,7.40
2023-05-15T16:07:43.190Z,5.95
2023-05-15T16:10:13.368Z,10.25
2023-05-15T16:12:42.266Z,6.65
2023-05-15T16:15:21.630Z,9.20
2023-05-15T16:17:52.534Z,8.32
2023-05-15T16:20:20.141Z,6.90
2023-05-15T16:22:47.290Z,7.13
2023-05-15T16:25:14.408Z,6.78
2023-05-15T16:27:41.568Z,6.63
2023-05-15T16:30:09.400Z,6.03
2023-05-15T16:32:36.601Z,6.72
2023-05-15T16:35:03.965Z,7.15
2023-05-15T16:37:31.078Z,8.70
2023-05-15T16:39:58.378Z,6.63
2023-05-15T16:42:25.588Z,7.43
2023-05-15T16:44:52.695Z,10.30
2023-05-15T16:47:19.826Z,7.32
2023-05-15T16:49:49.872Z,6.30
2023-05-15T16:52:17.329Z,8.30
2023-05-15T16:54:44.450Z,11.95
2023-05-15T16:57:11.540Z,7.72
2023-05-15T16:59:38.712Z,7.13
2023-05-15T17:02:05.936Z,7.90
2023-05-15T17:04:35.149Z,9.73
2023-05-15T17:07:02.308Z,8.77
2023-05-15T17:09:29.457Z,8.98
2023-05-15T17:11:56.731Z,8.77
2023-05-15T17:14:23.903Z,10.57
2023-05-15T17:16:51.045Z,9.25
2023-05-15T17:19:18.283Z,9.95
2023-05-15T17:21:46.245Z,9.40
2023-05-15T17:24:15.009Z,9.52
2023-05-15T17:26:42.210Z,12.23
2023-05-15T17:29:10.941Z,10.55
2023-05-15T17:31:39.187Z,8.73
2023-05-15T17:34:06.321Z,8.13
2023-05-15T17:36:36.496Z,6.38
2023-05-15T17:39:03.836Z,9.10
2023-05-15T17:41:31.044Z,9.38
2023-05-15T17:43:58.151Z,6.40
2023-05-15T17:46:25.275Z,7.75
2023-05-15T17:48:53.207Z,10.88
2023-05-15T17:51:20.383Z,8.95
2023-05-15T17:53:48.071Z,6.53
2023-05-15T17:56:15.317Z,7.00
2023-05-15T17:58:42.423Z,9.13
2023-05-15T18:01:09.587Z,8.10
2023-05-15T18:03:37.054Z,6.30
2023-05-15T18:06:05.154Z,6.30
2023-05-15T18:08:32.310Z,10.43
2023-05-15T18:10:59.455Z,8.57
2023-05-15T18:13:26.573Z,8.18
2023-05-15T18:15:53.697Z,8.13
2023-05-15T18:18:20.822Z,9.23
2023-05-15T18:20:47.890Z,8.77
2023-05-15T18:23:16.738Z,9.20
2023-05-15T18:25:44.521Z,8.87
2023-05-15T18:28:11.625Z,15.83
2023-05-15T18:30:38.740Z,8.73
2023-05-15T18:33:06.007Z,8.70
2023-05-15T18:35:33.255Z,8.03
2023-05-15T18:38:00.487Z,8.83
2023-05-15T18:40:27.639Z,10.37
2023-05-15T18:42:56.188Z,11.70
2023-05-15T18:45:23.609Z,8.03
2023-05-15T18:47:51.107Z,7.33
2023-05-15T18:50:19.307Z,11.50
2023-05-15T18:52:46.746Z,11.30
2023-05-15T18:55:14.677Z,8.27
2023-05-15T18:57:42.441Z,10.23
2023-05-15T19:00:09.800Z,9.50
2023-05-15T19:02:40.305Z,10.47
2023-05-15T19:05:08.164Z,10.93
2023-05-15T19:07:35.357Z,9.07
2023-05-15T19:10:02.605Z,8.80
2023-05-15T19:12:29.797Z,9.37
2023-05-15T19:14:56.934Z,8.37
2023-05-15T19:17:24.428Z,7.40
2023-05-15T19:19:52.186Z,8.47
2023-05-15T19:22:19.741Z,9.40
2023-05-15T19:24:47.171Z,9.87
2023-05-15T19:27:14.757Z,10.07
2023-05-15T19:29:42.970Z,8.43
2023-05-15T19:32:10.283Z,9.70
2023-05-15T19:34:37.719Z,8.60
2023-05-15T19:37:04.846Z,8.63
2023-05-15T19:39:33.589Z,10.97
2023-05-15T19:42:00.826Z,10.07
2023-05-15T19:44:27.990Z,7.43
2023-05-15T19:46:55.279Z,8.93
2023-05-15T19:49:22.421Z,9.40
2023-05-15T19:51:49.520Z,11.00
2023-05-15T19:54:16.692Z,6.97
2023-05-15T19:56:44.533Z,9.67
2023-05-15T19:59:11.658Z,8.83
2023-05-15T20:01:38.763Z,8.57
2023-05-15T20:04:05.935Z,9.17
2023-05-15T20:06:33.165Z,8.20
2023-05-15T20:09:00.270Z,8.43
2023-05-15T20:11:27.650Z,8.33
2023-05-15T20:13:54.822Z,8.83
2023-05-15T20:16:22.082Z,10.33
2023-05-15T20:18:50.441Z,8.27
2023-05-15T20:21:17.627Z,8.80
2023-05-15T20:23:44.712Z,8.43
2023-05-15T20:26:11.853Z,10.40
2023-05-15T20:28:38.962Z,9.90
2023-05-15T20:31:06.040Z,12.23
2023-05-15T20:33:33.233Z,8.53
2023-05-15T20:36:00.568Z,9.13
2023-05-15T20:38:28.286Z,9.77
2023-05-15T20:40:56.589Z,9.83
2023-05-15T20:43:23.906Z,8.83
2023-05-15T20:45:51.772Z,9.87
2023-05-15T20:48:18.906Z,10.03
2023-05-15T20:50:46.271Z,8.43
2023-05-15T20:53:13.400Z,11.03
2023-05-15T20:55:40.712Z,8.77
2023-05-15T20:58:07.876Z,11.20
2023-05-15T21:00:35.032Z,9.77
2023-05-15T21:03:02.740Z,9.10
2023-05-15T21:05:29.927Z,10.30
2023-05-15T21:07:57.081Z,9.77
2023-05-15T21:10:24.339Z,8.80
2023-05-15T21:12:51.529Z,9.17
2023-05-15T21:15:18.648Z,10.17
2023-05-15T21:17:46.035Z,10.23
2023-05-15T21:20:13.261Z,10.03
2023-05-15T21:22:41.092Z,8.70
2023-05-15T21:25:08.437Z,9.30
2023-05-15T21:27:35.567Z,11.73
2023-05-15T21:30:02.711Z,12.90
2023-05-15T21:32:29.956Z,10.17
2023-05-15T21:34:57.111Z,9.70
2023-05-15T21:37:24.314Z,11.97
2023-05-15T21:39:51.431Z,11.37
2023-05-15T21:42:18.773Z,10.07
2023-05-15T21:44:45.929Z,9.40
2023-05-15T21:47:13.057Z,12.83
2023-05-15T21:49:40.161Z,10.20
2023-05-15T21:52:07.288Z,10.30
2023-05-15T21:54:34.391Z,10.60
2023-05-15T21:57:01.487Z,10.27
2023-05-15T21:59:28.636Z,12.83
2023-05-15T22:01:55.980Z,10.17
2023-05-15T22:04:23.175Z,10.17
2023-05-15T22:06:50.962Z,9.43
2023-05-15T22:09:18.077Z,12.10
2023-05-15T22:11:45.192Z,10.37
2023-05-15T22:14:12.475Z,10.80
2023-05-15T22:16:39.706Z,10.77
2023-05-15T22:19:07.946Z,12.80
2023-05-15T22:21:37.382Z,11.00
2023-05-15T22:24:04.556Z,10.03
2023-05-15T22:26:33.222Z,10.60
2023-05-15T22:29:00.346Z,9.60
2023-05-15T22:31:27.445Z,9.70
2023-05-15T22:33:54.572Z,10.40
2023-05-15T22:36:21.843Z,9.20
2023-05-15T22:38:49.008Z,10.97
2023-05-15T22:41:16.144Z,12.07
2023-05-15T22:43:43.317Z,10.63
2023-05-15T22:46:10.519Z,10.93
2023-05-15T22:48:37.779Z,10.87
2023-05-15T22:51:05.150Z,9.90
2023-05-15T22:53:32.304Z,12.63
2023-05-15T22:55:59.450Z,11.80
2023-05-15T22:58:26.569Z,11.43
2023-05-15T23:00:53.788Z,10.93
2023-05-15T23:03:21.314Z,11.97
2023-05-15T23:05:48.581Z,11.27
2023-05-15T23:08:15.742Z,11.10
2023-05-15T23:10:42.911Z,12.57
2023-05-15T23:13:10.162Z,13.00
2023-05-15T23:15:37.319Z,10.53
2023-05-15T23:18:05.445Z,13.20
2023-05-15T23:20:32.659Z,11.33
2023-05-15T23:22:59.775Z,13.20
2023-05-15T23:25:26.910Z,13.53
2023-05-15T23:27:54.070Z,11.97
2023-05-15T23:30:21.243Z,12.47
2023-05-15T23:32:48.426Z,11.73
2023-05-15T23:35:15.647Z,13.83
2023-05-15T23:37:42.839Z,11.60
2023-05-15T23:40:10.607Z,18.83
2023-05-15T23:42:37.701Z,12.83
2023-05-15T23:45:04.994Z,12.60
2023-05-15T23:47:32.138Z,11.97
2023-05-15T23:49:59.375Z,11.93
2023-05-15T23:52:26.540Z,11.50
2023-05-15T23:54:53.688Z,13.73
2023-05-15T23:57:20.811Z,13.10
2023-05-15T23:59:47.909Z,13.67
